createdAt,value
2023-02-24T00:01:25.138Z,102289.19
2023-02-24T00:06:37.254Z,102288.56
2023-02-24T00:11:46.518Z,102287.66
2023-02-24T00:16:49.481Z,102286.16
2023-02-24T00:21:54.651Z,102291.16
2023-02-24T00:26:59.772Z,102303.34
2023-02-24T00:32:07.106Z,102299.09
2023-02-24T00:37:09.993Z,102301.75
2023-02-24T00:42:13.174Z,102305.38
2023-02-24T00:47:17.825Z,102319.09
2023-02-24T00:52:22.218Z,102320.00
2023-02-24T00:57:24.646Z,102326.78
2023-02-24T01:02:27.213Z,102328.50
2023-02-24T01:07:29.754Z,102332.69
2023-02-24T01:12:39.061Z,102323.41
2023-02-24T01:17:41.655Z,102324.56
2023-02-24T01:22:51.300Z,102329.03
2023-02-24T01:27:54.340Z,102334.69
2023-02-24T01:32:57.736Z,102330.69
2023-02-24T01:38:01.975Z,102331.88
2023-02-24T01:43:09.144Z,102337.13
2023-02-24T01:48:12.945Z,102355.41
2023-02-24T01:53:15.878Z,102353.44
2023-02-24T01:58:25.300Z,102354.09
2023-02-24T02:03:35.076Z,102351.66
2023-02-24T02:08:42.567Z,102354.31
2023-02-24T02:13:46.453Z,102361.50
2023-02-24T02:19:00.896Z,102375.22
2023-02-24T02:24:27.762Z,102369.03
2023-02-24T02:29:45.350Z,102369.50
2023-02-24T02:34:57.666Z,102380.47
2023-02-24T02:40:23.725Z,102377.72
2023-02-24T02:45:47.896Z,102369.00
2023-02-24T02:50:55.438Z,102381.03
2023-02-24T02:56:09.853Z,102376.59
2023-02-24T03:01:18.996Z,102362.09
2023-02-24T03:06:34.793Z,102371.09
2023-02-24T03:11:39.597Z,102369.09
2023-02-24T03:16:51.931Z,102370.06
2023-02-24T03:22:12.561Z,102367.09
2023-02-24T03:27:48.698Z,102374.81
2023-02-24T03:33:18.468Z,102368.72
2023-02-24T03:38:24.631Z,102399.47
2023-02-24T03:48:59.821Z,102384.41
2023-02-24T03:54:32.978Z,102382.81
2023-02-24T04:00:42.094Z,102405.06
2023-02-24T04:06:05.264Z,102408.03
2023-02-24T04:11:17.357Z,102407.66
2023-02-24T04:16:30.330Z,102415.53
2023-02-24T04:21:36.025Z,102378.69
2023-02-24T04:26:42.871Z,102381.75
2023-02-24T04:31:50.188Z,102387.88
2023-02-24T04:36:53.270Z,102401.34
2023-02-24T04:41:59.423Z,102405.22
2023-02-24T04:47:21.381Z,102405.31
2023-02-24T04:52:24.228Z,102420.09
2023-02-24T04:57:26.906Z,102424.19
2023-02-24T05:02:30.868Z,102447.91
2023-02-24T05:07:33.395Z,102446.81
2023-02-24T05:12:35.811Z,102438.88
2023-02-24T05:17:38.596Z,102453.88
2023-02-24T05:22:41.145Z,102448.00
2023-02-24T05:27:43.746Z,102453.44
2023-02-24T05:32:46.480Z,102457.16
2023-02-24T05:37:49.086Z,102456.84
2023-02-24T05:42:52.276Z,102465.00
2023-02-24T05:47:55.386Z,102480.94
2023-02-24T05:52:57.861Z,102484.59
2023-02-24T05:58:00.324Z,102481.22
2023-02-24T06:03:08.765Z,102487.13
2023-02-24T06:08:14.091Z,102474.84
2023-02-24T06:13:16.620Z,102484.28
2023-02-24T06:18:19.089Z,102472.16
2023-02-24T06:23:27.024Z,102466.41
2023-02-24T06:28:29.886Z,102475.13
2023-02-24T06:33:33.550Z,102483.06
2023-02-24T06:38:37.413Z,102482.47
2023-02-24T06:43:43.489Z,102483.31
2023-02-24T06:48:48.377Z,102482.72
2023-02-24T06:53:52.714Z,102476.03
2023-02-24T06:58:57.276Z,102493.59
2023-02-24T07:04:20.582Z,102496.00
2023-02-24T07:09:43.036Z,102520.81
2023-02-24T07:14:47.293Z,102527.69
2023-02-24T07:19:49.933Z,102523.97
2023-02-24T07:25:00.787Z,102531.41
2023-02-24T07:30:06.693Z,102525.38
2023-02-24T07:35:09.631Z,102529.91
2023-02-24T07:40:17.520Z,102526.56
2023-02-24T07:45:21.214Z,102514.25
2023-02-24T07:50:24.367Z,102508.69
2023-02-24T07:55:31.500Z,102520.44
2023-02-24T08:00:50.401Z,102523.75
2023-02-24T08:05:56.104Z,102528.88
2023-02-24T08:11:04.352Z,102516.88
2023-02-24T08:16:07.202Z,102520.69
2023-02-24T08:21:09.893Z,102524.44
2023-02-24T08:26:13.072Z,102525.91
2023-02-24T08:31:19.010Z,102512.88
2023-02-24T08:36:21.767Z,102513.44
2023-02-24T08:41:44.286Z,102512.47
2023-02-24T08:46:50.473Z,102507.41
2023-02-24T08:51:53.496Z,102500.59
2023-02-24T08:56:56.840Z,102498.72
2023-02-24T09:02:18.865Z,102493.25
2023-02-24T09:07:27.862Z,102500.50
2023-02-24T09:12:31.403Z,102494.88
2023-02-24T09:17:40.825Z,102493.66
2023-02-24T09:22:57.529Z,102470.38
2023-02-24T09:28:21.366Z,102474.56
2023-02-24T09:33:39.528Z,102456.09
2023-02-24T09:39:00.396Z,102445.78
2023-02-24T09:44:18.764Z,102438.63
2023-02-24T09:49:27.888Z,102437.50
2023-02-24T09:54:35.532Z,102431.66
2023-02-24T09:59:55.209Z,102426.59
2023-02-24T10:05:26.140Z,102428.75
2023-02-24T10:10:39.263Z,102429.38
2023-02-24T10:15:57.247Z,102402.59
2023-02-24T10:21:18.783Z,102399.34
2023-02-24T10:26:33.011Z,102403.47
2023-02-24T10:31:48.212Z,102390.63
2023-02-24T10:36:51.087Z,102378.78
2023-02-24T10:42:15.959Z,102386.66
2023-02-24T10:47:34.079Z,102380.09
2023-02-24T10:52:58.650Z,102379.97
2023-02-24T10:58:16.271Z,102376.69
2023-02-24T11:03:36.306Z,102361.59
2023-02-24T11:08:54.995Z,102366.44
2023-02-24T11:14:18.985Z,102353.50
2023-02-24T11:19:21.508Z,102370.41
2023-02-24T11:24:24.062Z,102370.81
2023-02-24T11:29:45.194Z,102362.44
2023-02-24T11:35:00.432Z,102362.63
2023-02-24T11:40:16.812Z,102370.72
2023-02-24T11:45:35.549Z,102383.44
2023-02-24T11:50:44.080Z,102354.63
2023-02-24T11:55:51.832Z,102374.22
2023-02-24T12:01:24.745Z,102371.16
2023-02-24T12:06:48.391Z,102364.81
2023-02-24T12:12:18.978Z,102365.22
2023-02-24T12:17:33.908Z,102358.50
2023-02-24T12:22:58.591Z,102362.53
2023-02-24T12:28:22.135Z,102358.06
2023-02-24T12:33:34.121Z,102362.78
2023-02-24T12:38:53.519Z,102355.09
2023-02-24T12:44:09.620Z,102330.09
2023-02-24T12:49:23.927Z,102339.94
2023-02-24T12:54:52.026Z,102357.38
2023-02-24T12:59:57.970Z,102351.72
2023-02-24T13:05:13.711Z,102356.94
2023-02-24T13:10:31.077Z,102346.38
2023-02-24T13:15:33.790Z,102334.78
2023-02-24T13:20:38.776Z,102335.59
2023-02-24T13:25:41.616Z,102338.16
2023-02-24T13:30:45.213Z,102330.47
2023-02-24T13:35:54.482Z,102325.28
2023-02-24T13:41:08.925Z,102316.22
2023-02-24T13:46:19.019Z,102321.50
2023-02-24T13:51:48.374Z,102323.69
2023-02-24T13:56:56.875Z,102320.84
2023-02-24T14:02:04.288Z,102324.31
2023-02-24T14:07:12.477Z,102325.88
2023-02-24T14:12:24.902Z,102331.69
2023-02-24T14:17:34.452Z,102316.88
2023-02-24T14:23:04.197Z,102333.81
2023-02-24T14:28:06.772Z,102324.84
2023-02-24T14:33:26.429Z,102326.56
2023-02-24T14:38:29.248Z,102320.75
2023-02-24T14:43:32.331Z,102319.13
2023-02-24T14:48:34.827Z,102321.28
2023-02-24T14:53:46.184Z,102326.44
2023-02-24T14:58:52.693Z,102334.19
2023-02-24T15:03:59.506Z,102312.00
2023-02-24T15:09:05.968Z,102331.00
2023-02-24T15:14:21.463Z,102336.38
2023-02-24T15:19:34.215Z,102345.41
2023-02-24T15:24:36.852Z,102341.66
2023-02-24T15:29:40.795Z,102323.63
2023-02-24T15:34:45.944Z,102343.56
2023-02-24T15:39:49.506Z,102345.72
2023-02-24T15:45:00.773Z,102335.75
2023-02-24T15:50:04.710Z,102330.19
2023-02-24T15:55:07.528Z,102322.06
2023-02-24T16:00:15.172Z,102326.16
2023-02-24T16:05:17.718Z,102318.94
2023-02-24T16:10:29.301Z,102318.19
2023-02-24T16:15:39.573Z,102306.88
2023-02-24T16:20:42.204Z,102306.88
2023-02-24T16:25:45.679Z,102300.59
2023-02-24T16:30:50.234Z,102293.31
2023-02-24T16:35:55.752Z,102289.53
2023-02-24T16:40:58.166Z,102287.94
2023-02-24T16:46:04.289Z,102283.16
2023-02-24T16:51:08.569Z,102278.22
2023-02-24T16:56:12.705Z,102271.47
2023-02-24T17:01:20.822Z,102262.53
2023-02-24T17:06:24.979Z,102262.75
2023-02-24T17:11:28.557Z,102262.13
2023-02-24T17:16:31.107Z,102252.84
2023-02-24T17:21:33.798Z,102235.03
2023-02-24T17:26:36.673Z,102245.28
2023-02-24T17:31:39.449Z,102243.88
2023-02-24T17:36:42.200Z,102243.22
2023-02-24T17:41:45.140Z,102246.81
2023-02-24T17:46:47.752Z,102240.19
2023-02-24T17:51:51.674Z,102231.47
2023-02-24T17:56:54.261Z,102236.06
2023-02-24T18:01:56.824Z,102236.56
2023-02-24T18:06:59.342Z,102236.38
2023-02-24T18:12:02.123Z,102230.56
2023-02-24T18:17:04.793Z,102229.50
2023-02-24T18:22:10.894Z,102199.38
2023-02-24T18:27:13.498Z,102190.88
2023-02-24T18:32:16.245Z,102197.69
2023-02-24T18:37:19.070Z,102202.03
2023-02-24T18:42:21.841Z,102188.56
2023-02-24T18:47:24.428Z,102196.91
2023-02-24T18:52:27.028Z,102176.25
2023-02-24T18:57:29.648Z,102176.25
2023-02-24T19:02:32.524Z,102183.00
2023-02-24T19:07:35.116Z,102180.38
2023-02-24T19:12:37.582Z,102172.72
2023-02-24T19:17:40.077Z,102164.00
2023-02-24T19:22:43.303Z,102151.25
2023-02-24T19:27:48.019Z,102143.06
2023-02-24T19:32:50.500Z,102126.56
2023-02-24T19:37:52.963Z,102151.00
2023-02-24T19:42:55.812Z,102139.66
2023-02-24T19:47:58.318Z,102147.38
2023-02-24T19:53:01.763Z,102151.06
2023-02-24T19:58:05.029Z,102148.38
2023-02-24T20:03:07.593Z,102144.09
2023-02-24T20:08:10.087Z,102147.69
2023-02-24T20:13:12.803Z,102144.22
2023-02-24T20:18:17.378Z,102154.31
2023-02-24T20:23:19.850Z,102138.13
2023-02-24T20:28:23.469Z,102141.31
2023-02-24T20:33:26.706Z,102151.44
2023-02-24T20:38:29.475Z,102129.94
2023-02-24T20:43:32.615Z,102141.66
2023-02-24T20:48:37.595Z,102141.06
2023-02-24T20:53:55.901Z,102134.63
2023-02-24T20:59:04.482Z,102121.50
2023-02-24T21:04:09.111Z,102122.25
2023-02-24T21:09:12.339Z,102134.03
2023-02-24T21:14:16.948Z,102138.84
2023-02-24T21:19:20.403Z,102123.38
2023-02-24T21:24:24.314Z,102128.69
2023-02-24T21:29:26.749Z,102123.31
2023-02-24T21:34:30.818Z,102111.53
2023-02-24T21:39:33.751Z,102107.88
2023-02-24T21:44:36.214Z,102108.53
2023-02-24T21:49:38.980Z,102105.94
2023-02-24T21:54:42.542Z,102104.34
2023-02-24T21:59:45.051Z,102106.19
2023-02-24T22:04:47.834Z,102100.66
2023-02-24T22:09:50.701Z,102089.41
2023-02-24T22:14:53.118Z,102090.16
2023-02-24T22:19:56.652Z,102080.38
2023-02-24T22:24:59.242Z,102075.53
2023-02-24T22:30:01.654Z,102089.69
2023-02-24T22:35:04.788Z,102078.94
2023-02-24T22:40:07.816Z,102083.41
2023-02-24T22:45:10.674Z,102074.69
2023-02-24T22:50:16.011Z,102075.66
2023-02-24T22:55:19.907Z,102073.53
2023-02-24T23:00:23.415Z,102064.31
2023-02-24T23:05:25.817Z,102053.53
2023-02-24T23:10:28.234Z,102051.84
2023-02-24T23:20:59.859Z,102040.84
2023-02-24T23:26:02.492Z,102037.25
2023-02-24T23:31:05.343Z,102037.06
2023-02-24T23:36:08.454Z,102011.25
2023-02-24T23:41:11.787Z,102019.19
2023-02-24T23:46:16.917Z,102021.88
2023-02-24T23:51:19.709Z,102023.28
2023-02-24T23:56:27.275Z,102012.78
